createdAt,value
2017-09-29T00:00:13.976Z,14.60
2017-09-29T00:02:43.267Z,15.27
2017-09-29T00:05:12.524Z,20.75
2017-09-29T00:07:41.776Z,19.45
2017-09-29T00:10:11.052Z,17.80
2017-09-29T00:12:41.092Z,22.70
2017-09-29T00:15:11.223Z,15.50
2017-09-29T00:17:40.531Z,15.18
2017-09-29T00:20:09.780Z,18.30
2017-09-29T00:22:39.819Z,17.37
2017-09-29T00:25:09.068Z,17.90
2017-09-29T00:27:38.315Z,17.40
2017-09-29T00:30:07.604Z,14.63
2017-09-29T00:32:37.603Z,13.62
2017-09-29T00:35:06.876Z,13.73
2017-09-29T00:37:36.269Z,16.90
2017-09-29T00:40:05.517Z,13.13
2017-09-29T00:42:35.567Z,16.85
2017-09-29T00:45:04.823Z,14.55
2017-09-29T00:47:34.072Z,15.38
2017-09-29T00:50:03.374Z,17.98
2017-09-29T00:52:32.623Z,18.75
2017-09-29T00:55:01.884Z,14.73
2017-09-29T00:57:31.180Z,17.80
2017-09-29T01:00:00.432Z,15.68
2017-09-29T01:02:29.691Z,17.55
2017-09-29T01:04:59.732Z,19.83
2017-09-29T01:07:29.751Z,16.87
2017-09-29T01:09:59.050Z,14.82
2017-09-29T01:12:28.298Z,18.50
2017-09-29T01:14:57.560Z,19.75
2017-09-29T01:17:26.864Z,17.15
2017-09-29T01:19:56.107Z,18.30
2017-09-29T01:22:25.360Z,16.85
2017-09-29T01:24:54.627Z,14.40
2017-09-29T01:27:24.646Z,15.40
2017-09-29T01:29:54.680Z,16.37
2017-09-29T01:32:24.709Z,17.15
2017-09-29T01:34:53.987Z,14.82
2017-09-29T01:37:24.019Z,16.67
2017-09-29T01:39:53.278Z,16.23
2017-09-29T01:42:22.523Z,18.05
2017-09-29T01:44:51.798Z,16.95
2017-09-29T01:47:21.814Z,18.55
2017-09-29T01:49:52.025Z,18.77
2017-09-29T01:52:21.283Z,14.07
2017-09-29T01:54:51.343Z,16.33
2017-09-29T01:57:20.596Z,18.98
2017-09-29T01:59:49.839Z,22.08
2017-09-29T02:02:19.250Z,14.85
2017-09-29T02:04:48.506Z,15.98
2017-09-29T02:07:17.751Z,14.95
2017-09-29T02:09:47.075Z,17.35
2017-09-29T02:12:17.094Z,14.87
2017-09-29T02:14:46.400Z,16.35
2017-09-29T02:17:15.827Z,13.77
2017-09-29T02:19:45.083Z,12.85
2017-09-29T02:22:14.330Z,15.80
2017-09-29T02:24:43.620Z,15.27
2017-09-29T02:27:12.882Z,17.58
2017-09-29T02:29:42.126Z,14.85
2017-09-29T02:32:11.518Z,17.42
2017-09-29T02:34:40.772Z,17.20
2017-09-29T02:37:10.028Z,13.98
2017-09-29T02:39:39.333Z,17.67
2017-09-29T02:42:08.584Z,15.80
2017-09-29T02:44:37.838Z,14.27
2017-09-29T02:47:07.153Z,17.12
2017-09-29T02:49:36.397Z,14.70
2017-09-29T02:52:06.432Z,12.85
2017-09-29T02:54:35.688Z,13.90
2017-09-29T02:57:09.431Z,12.93
2017-09-29T02:59:45.683Z,16.90
2017-09-29T03:02:18.448Z,18.05
2017-09-29T03:05:03.833Z,22.75
2017-09-29T03:07:34.511Z,20.70
2017-09-29T03:10:03.767Z,26.15
2017-09-29T03:12:33.928Z,21.20
2017-09-29T03:15:03.177Z,18.02
2017-09-29T03:17:32.430Z,15.82
2017-09-29T03:20:01.700Z,14.02
2017-09-29T03:22:31.711Z,17.35
2017-09-29T03:25:01.760Z,18.27
2017-09-29T03:27:31.015Z,23.75
2017-09-29T03:30:00.266Z,14.95
2017-09-29T03:32:29.558Z,15.38
2017-09-29T03:34:58.814Z,17.60
2017-09-29T03:37:28.080Z,15.13
2017-09-29T03:39:57.362Z,16.75
2017-09-29T03:42:26.609Z,18.05
2017-09-29T03:44:55.865Z,21.35
2017-09-29T03:47:25.154Z,17.15
2017-09-29T03:50:02.647Z,15.75
2017-09-29T03:52:35.802Z,20.15
2017-09-29T03:55:08.978Z,18.35
2017-09-29T03:57:43.867Z,17.37
2017-09-29T04:00:14.792Z,17.33
2017-09-29T04:02:49.432Z,19.15
2017-09-29T04:05:19.515Z,18.50
2017-09-29T04:07:50.267Z,17.98
2017-09-29T04:10:20.332Z,19.55
2017-09-29T04:12:49.580Z,17.08
2017-09-29T04:15:18.849Z,20.42
2017-09-29T04:17:48.092Z,20.88
2017-09-29T04:20:17.522Z,21.80
2017-09-29T04:22:46.801Z,21.87
2017-09-29T04:25:16.831Z,21.45
2017-09-29T04:27:47.031Z,19.33
2017-09-29T04:30:17.087Z,22.17
2017-09-29T04:32:46.336Z,20.10
2017-09-29T04:35:16.372Z,22.20
2017-09-29T04:37:46.387Z,21.05
2017-09-29T04:40:15.658Z,16.58
2017-09-29T04:42:44.908Z,15.80
2017-09-29T04:45:14.163Z,18.70
2017-09-29T04:47:43.607Z,19.67
2017-09-29T04:50:13.064Z,18.35
2017-09-29T04:52:44.029Z,23.17
2017-09-29T04:55:13.280Z,23.85
2017-09-29T04:57:42.539Z,24.73
2017-09-29T05:00:11.815Z,24.33
2017-09-29T05:02:41.061Z,22.42
2017-09-29T05:05:10.307Z,23.42
2017-09-29T05:07:40.489Z,20.95
2017-09-29T05:10:09.736Z,20.48
2017-09-29T05:12:38.976Z,20.62
2017-09-29T05:15:08.406Z,21.48
2017-09-29T05:17:37.653Z,21.65
2017-09-29T05:20:07.679Z,21.55
2017-09-29T05:22:36.979Z,17.48
2017-09-29T05:25:06.234Z,25.73
2017-09-29T05:27:35.500Z,23.05
2017-09-29T05:30:04.782Z,20.65
2017-09-29T05:32:34.047Z,20.27
2017-09-29T05:35:03.299Z,18.87
2017-09-29T05:37:32.710Z,20.10
2017-09-29T05:40:01.955Z,18.65
2017-09-29T05:42:31.203Z,21.08
2017-09-29T05:45:01.241Z,16.85
2017-09-29T05:47:30.627Z,23.77
2017-09-29T05:49:59.895Z,21.35
2017-09-29T05:52:30.085Z,19.42
2017-09-29T05:54:59.346Z,21.12
2017-09-29T05:57:28.594Z,20.98
2017-09-29T05:59:57.875Z,30.02
2017-09-29T06:02:27.125Z,23.87
2017-09-29T06:04:57.322Z,22.52
2017-09-29T06:07:26.571Z,16.83
2017-09-29T06:09:55.823Z,21.27
2017-09-29T06:12:25.110Z,22.10
2017-09-29T06:14:54.351Z,20.23
2017-09-29T06:17:23.609Z,18.62
2017-09-29T06:19:53.024Z,17.00
2017-09-29T06:22:22.275Z,23.62
2017-09-29T06:24:51.524Z,18.40
2017-09-29T06:27:20.795Z,23.20
2017-09-29T06:29:50.035Z,19.17
2017-09-29T06:32:19.295Z,20.33
2017-09-29T06:34:48.562Z,22.30
2017-09-29T06:37:17.817Z,17.95
2017-09-29T06:39:47.062Z,23.30
2017-09-29T06:42:17.161Z,23.10
2017-09-29T06:44:47.177Z,17.87
2017-09-29T06:47:17.198Z,21.83
2017-09-29T06:49:47.217Z,28.02
2017-09-29T06:52:17.247Z,29.02
2017-09-29T06:54:46.507Z,20.85
2017-09-29T06:57:15.758Z,19.62
2017-09-29T06:59:50.095Z,21.12
2017-09-29T07:02:19.347Z,18.80
2017-09-29T07:04:49.395Z,19.87
2017-09-29T07:07:18.642Z,19.35
2017-09-29T07:09:47.890Z,22.70
2017-09-29T07:12:17.278Z,19.73
2017-09-29T07:14:46.530Z,28.55
2017-09-29T07:17:15.868Z,23.05
2017-09-29T07:19:45.919Z,21.37
2017-09-29T07:22:15.170Z,21.65
2017-09-29T07:24:50.002Z,18.25
2017-09-29T07:27:32.232Z,20.98
2017-09-29T07:30:04.555Z,24.65
2017-09-29T07:32:34.302Z,21.83
2017-09-29T07:35:04.500Z,22.00
2017-09-29T07:37:33.751Z,26.75
2017-09-29T07:40:03.003Z,21.30
2017-09-29T07:42:32.266Z,31.83
2017-09-29T07:45:01.512Z,29.45
2017-09-29T07:47:30.787Z,20.90
2017-09-29T07:50:00.151Z,23.45
2017-09-29T07:52:30.407Z,21.40
2017-09-29T07:55:00.409Z,28.05
2017-09-29T07:57:29.687Z,24.55
2017-09-29T07:59:58.928Z,26.30
2017-09-29T08:02:28.175Z,22.33
2017-09-29T08:04:58.223Z,22.02
2017-09-29T08:07:27.466Z,20.20
2017-09-29T08:09:56.718Z,21.85
2017-09-29T08:12:26.011Z,26.70
2017-09-29T08:14:55.281Z,21.85
2017-09-29T08:17:24.545Z,23.20
2017-09-29T08:19:53.806Z,18.77
2017-09-29T08:22:23.225Z,21.50
2017-09-29T08:24:52.479Z,21.65
2017-09-29T08:27:21.750Z,22.83
2017-09-29T08:29:50.991Z,20.12
2017-09-29T08:32:20.239Z,24.60
2017-09-29T08:34:49.508Z,29.33
2017-09-29T08:37:18.764Z,21.75
2017-09-29T08:39:48.023Z,25.85
2017-09-29T08:42:17.286Z,20.62
2017-09-29T08:44:47.299Z,20.17
2017-09-29T08:47:17.350Z,23.95
2017-09-29T08:49:46.608Z,18.17
2017-09-29T08:52:15.852Z,26.58
2017-09-29T08:54:45.122Z,21.85
2017-09-29T08:57:15.134Z,20.42
2017-09-29T08:59:45.205Z,19.42
2017-09-29T09:02:14.464Z,18.90
2017-09-29T09:04:44.517Z,18.62
2017-09-29T09:07:13.758Z,18.02
2017-09-29T09:09:43.043Z,20.95
2017-09-29T09:12:12.328Z,20.90
2017-09-29T09:14:41.573Z,19.58
2017-09-29T09:17:10.895Z,22.90
2017-09-29T09:19:40.921Z,17.90
2017-09-29T09:22:10.178Z,20.20
2017-09-29T09:24:39.458Z,15.63
2017-09-29T09:27:08.730Z,18.00
2017-09-29T09:29:37.990Z,20.65
2017-09-29T09:32:07.264Z,22.20
2017-09-29T09:34:36.519Z,17.20
2017-09-29T09:37:05.779Z,23.17
2017-09-29T09:39:35.201Z,16.40
2017-09-29T09:42:05.227Z,20.00
2017-09-29T09:44:35.407Z,18.33
2017-09-29T09:47:04.672Z,20.25
2017-09-29T09:49:35.306Z,20.17
2017-09-29T09:52:04.707Z,16.08
2017-09-29T09:54:33.959Z,17.20
2017-09-29T09:57:03.207Z,16.90
2017-09-29T09:59:33.335Z,24.25
2017-09-29T10:02:02.629Z,15.40
2017-09-29T10:04:31.863Z,22.40
2017-09-29T10:07:01.146Z,28.80
2017-09-29T10:09:30.528Z,17.08
2017-09-29T10:11:59.899Z,14.68
2017-09-29T10:14:29.156Z,17.40
2017-09-29T10:16:58.415Z,15.75
2017-09-29T10:19:28.458Z,22.42
2017-09-29T10:21:57.710Z,17.15
2017-09-29T10:24:26.975Z,16.05
2017-09-29T10:26:56.255Z,23.42
2017-09-29T10:29:25.516Z,20.23
2017-09-29T10:31:54.771Z,17.48
2017-09-29T10:34:24.062Z,14.43
2017-09-29T10:36:53.303Z,18.73
2017-09-29T10:39:22.669Z,18.95
2017-09-29T10:41:53.238Z,17.87
2017-09-29T10:44:22.543Z,14.77
2017-09-29T10:46:51.794Z,17.10
2017-09-29T10:49:21.060Z,20.37
2017-09-29T10:51:51.122Z,21.77
2017-09-29T10:54:20.399Z,14.48
2017-09-29T10:56:49.689Z,15.43
2017-09-29T10:59:19.718Z,14.10
2017-09-29T11:01:49.030Z,13.95
2017-09-29T11:04:18.279Z,21.45
2017-09-29T11:06:47.530Z,16.08
2017-09-29T11:09:17.622Z,15.02
2017-09-29T11:11:47.631Z,13.90
2017-09-29T11:14:16.902Z,15.18
2017-09-29T11:16:46.254Z,15.05
2017-09-29T11:19:15.511Z,14.85
2017-09-29T11:21:44.763Z,12.65
2017-09-29T11:24:14.047Z,11.85
2017-09-29T11:26:43.303Z,16.15
2017-09-29T11:29:12.563Z,12.90
2017-09-29T11:31:41.839Z,16.25
2017-09-29T11:34:11.857Z,15.10
2017-09-29T11:36:42.078Z,12.68
2017-09-29T11:39:12.103Z,14.10
2017-09-29T11:41:42.975Z,11.12
2017-09-29T11:44:12.626Z,12.45
2017-09-29T11:46:41.894Z,14.50
2017-09-29T11:49:11.161Z,16.37
2017-09-29T11:51:40.407Z,11.48
2017-09-29T11:54:09.647Z,13.65
2017-09-29T11:56:39.686Z,11.93
2017-09-29T11:59:09.089Z,15.50
2017-09-29T12:01:38.315Z,13.88
2017-09-29T12:04:07.591Z,19.23
2017-09-29T12:06:36.879Z,11.88
2017-09-29T12:09:06.138Z,17.85
2017-09-29T12:11:35.419Z,11.20
2017-09-29T12:14:04.667Z,16.35
2017-09-29T12:16:34.771Z,10.93
2017-09-29T12:19:04.027Z,11.75
2017-09-29T12:21:34.046Z,14.00
2017-09-29T12:24:03.340Z,12.10
2017-09-29T12:26:32.591Z,12.60
2017-09-29T12:29:01.839Z,12.73
2017-09-29T12:31:31.342Z,12.50
2017-09-29T12:34:00.587Z,11.73
2017-09-29T12:36:29.903Z,15.70
2017-09-29T12:39:00.080Z,11.50
2017-09-29T12:41:29.329Z,11.85
2017-09-29T12:43:58.579Z,14.55
2017-09-29T12:46:29.100Z,14.48
2017-09-29T12:48:58.394Z,10.45
2017-09-29T12:51:27.642Z,13.75
2017-09-29T12:53:56.894Z,11.10
2017-09-29T12:56:26.167Z,14.15
2017-09-29T12:58:55.496Z,11.20
2017-09-29T13:01:24.735Z,14.63
2017-09-29T13:03:54.017Z,12.48
2017-09-29T13:06:23.275Z,13.68
2017-09-29T13:08:52.561Z,10.05
2017-09-29T13:11:21.847Z,11.80
2017-09-29T13:13:51.097Z,12.05
2017-09-29T13:16:20.334Z,10.20
2017-09-29T13:18:49.607Z,12.75
2017-09-29T13:21:18.858Z,10.23
2017-09-29T13:23:49.036Z,16.35
2017-09-29T13:26:18.275Z,11.85
2017-09-29T13:28:47.539Z,10.82
2017-09-29T13:31:16.842Z,15.20
2017-09-29T13:33:46.194Z,9.88
2017-09-29T13:36:16.247Z,11.50
2017-09-29T13:38:45.507Z,10.40
2017-09-29T13:41:15.635Z,10.35
2017-09-29T13:43:44.938Z,13.85
2017-09-29T13:46:15.005Z,14.05
2017-09-29T13:48:44.274Z,12.52
2017-09-29T13:51:14.383Z,11.40
2017-09-29T13:53:43.812Z,10.73
2017-09-29T13:56:13.147Z,13.55
2017-09-29T13:58:42.543Z,12.07
2017-09-29T14:01:11.854Z,10.95
2017-09-29T14:03:41.093Z,10.52
2017-09-29T14:06:10.407Z,11.68
2017-09-29T14:08:40.417Z,10.30
2017-09-29T14:11:09.850Z,11.50
2017-09-29T14:13:39.098Z,9.80
2017-09-29T14:16:09.851Z,10.05
2017-09-29T14:18:39.103Z,11.05
2017-09-29T14:21:08.363Z,11.90
2017-09-29T14:23:37.803Z,8.38
2017-09-29T14:26:07.046Z,9.98
2017-09-29T14:28:37.225Z,8.48
2017-09-29T14:31:06.466Z,8.43
2017-09-29T14:33:35.783Z,11.00
2017-09-29T14:36:05.567Z,9.55
2017-09-29T14:38:34.786Z,9.35
2017-09-29T14:41:04.119Z,10.43
2017-09-29T14:43:33.412Z,10.63
2017-09-29T14:46:02.654Z,9.48
2017-09-29T14:48:32.207Z,9.02
2017-09-29T14:51:02.615Z,10.32
2017-09-29T14:53:32.775Z,9.45
2017-09-29T14:56:02.212Z,10.63
2017-09-29T14:58:31.444Z,8.70
2017-09-29T15:01:02.257Z,11.52
2017-09-29T15:03:32.274Z,9.75
2017-09-29T15:06:01.524Z,9.60
2017-09-29T15:08:30.794Z,14.35
2017-09-29T15:11:01.483Z,8.93
2017-09-29T15:13:30.727Z,9.95
2017-09-29T15:16:00.930Z,10.00
2017-09-29T15:18:30.186Z,9.32
2017-09-29T15:20:59.459Z,9.50
2017-09-29T15:23:29.600Z,9.88
2017-09-29T15:25:58.883Z,9.35
2017-09-29T15:28:29.557Z,9.77
2017-09-29T15:30:58.790Z,9.82
2017-09-29T15:33:28.034Z,10.70
2017-09-29T15:35:57.294Z,8.65
2017-09-29T15:38:26.543Z,11.70
2017-09-29T15:40:55.909Z,9.15
2017-09-29T15:43:25.221Z,9.13
2017-09-29T15:45:55.240Z,12.50
2017-09-29T15:48:24.516Z,7.75
2017-09-29T15:50:53.771Z,8.45
2017-09-29T15:53:23.010Z,8.98
2017-09-29T15:55:52.294Z,10.30
2017-09-29T15:58:21.565Z,12.02
2017-09-29T16:00:50.798Z,10.95
2017-09-29T16:03:20.078Z,11.80
2017-09-29T16:05:49.371Z,15.90
2017-09-29T16:08:18.645Z,10.35
2017-09-29T16:10:48.090Z,8.80
2017-09-29T16:13:17.342Z,10.50
2017-09-29T16:15:46.590Z,7.47
2017-09-29T16:18:17.307Z,9.57
2017-09-29T16:20:46.538Z,14.00
2017-09-29T16:23:15.806Z,11.95
2017-09-29T16:25:45.092Z,9.23
2017-09-29T16:28:14.351Z,13.10
2017-09-29T16:30:43.701Z,9.98
2017-09-29T16:33:12.939Z,11.68
2017-09-29T16:35:42.352Z,11.43
2017-09-29T16:38:11.595Z,14.00
2017-09-29T16:40:40.891Z,12.98
2017-09-29T16:43:11.467Z,12.13
2017-09-29T16:45:43.559Z,14.40
2017-09-29T16:48:13.598Z,14.35
2017-09-29T16:50:42.849Z,15.40
2017-09-29T16:53:12.104Z,11.75
2017-09-29T16:55:41.401Z,12.68
2017-09-29T16:58:10.661Z,11.27
2017-09-29T17:00:39.931Z,11.93
2017-09-29T17:03:10.224Z,12.27
2017-09-29T17:05:39.471Z,11.55
2017-09-29T17:08:08.725Z,12.55
2017-09-29T17:10:38.437Z,12.52
2017-09-29T17:13:07.726Z,12.23
2017-09-29T17:15:37.762Z,14.13
2017-09-29T17:18:07.088Z,15.85
2017-09-29T17:20:36.342Z,10.18
2017-09-29T17:23:05.754Z,10.75
2017-09-29T17:25:35.193Z,12.80
2017-09-29T17:28:04.477Z,12.65
2017-09-29T17:30:34.513Z,12.02
2017-09-29T17:33:03.769Z,13.02
2017-09-29T17:35:33.030Z,16.37
2017-09-29T17:38:02.522Z,15.02
2017-09-29T17:40:31.732Z,13.43
2017-09-29T17:43:01.016Z,11.07
2017-09-29T17:45:30.304Z,11.93
2017-09-29T17:48:00.346Z,10.95
2017-09-29T17:50:29.600Z,13.45
2017-09-29T17:52:58.881Z,11.55
2017-09-29T17:55:28.141Z,14.70
2017-09-29T17:57:57.497Z,11.85
2017-09-29T18:00:26.752Z,11.85
2017-09-29T18:02:56.180Z,9.82
2017-09-29T18:05:25.425Z,11.98
2017-09-29T18:07:54.691Z,14.87
2017-09-29T18:10:23.999Z,14.63
2017-09-29T18:12:53.271Z,12.23
2017-09-29T18:15:22.524Z,11.93
2017-09-29T18:17:52.590Z,12.93
2017-09-29T18:20:21.816Z,12.13
2017-09-29T18:22:51.063Z,18.30
2017-09-29T18:25:20.488Z,11.80
2017-09-29T18:27:49.723Z,13.88
2017-09-29T18:30:18.983Z,16.50
2017-09-29T18:32:49.085Z,11.82
2017-09-29T18:35:18.350Z,12.25
2017-09-29T18:37:47.605Z,12.35
2017-09-29T18:40:19.267Z,18.92
2017-09-29T18:42:58.702Z,13.57
2017-09-29T18:45:31.270Z,17.35
2017-09-29T18:48:00.544Z,12.15
2017-09-29T18:50:30.720Z,13.13
2017-09-29T18:52:59.969Z,13.10
2017-09-29T18:55:29.237Z,12.65
2017-09-29T18:57:58.661Z,14.32
2017-09-29T19:00:28.676Z,17.75
2017-09-29T19:02:57.992Z,15.70
2017-09-29T19:05:27.262Z,15.10
2017-09-29T19:07:56.527Z,14.23
2017-09-29T19:10:25.820Z,17.15
2017-09-29T19:12:55.083Z,18.73
2017-09-29T19:15:25.276Z,19.08
2017-09-29T19:17:55.347Z,16.42
2017-09-29T19:20:24.612Z,16.52
2017-09-29T19:22:54.807Z,19.42
2017-09-29T19:25:24.062Z,21.30
2017-09-29T19:27:53.308Z,15.95
2017-09-29T19:30:22.592Z,17.65
2017-09-29T19:32:51.852Z,17.60
2017-09-29T19:35:21.914Z,15.02
2017-09-29T19:37:51.232Z,15.98
2017-09-29T19:40:20.711Z,17.75
2017-09-29T19:42:50.022Z,17.50
2017-09-29T19:45:19.264Z,19.00
2017-09-29T19:47:48.507Z,20.17
2017-09-29T19:50:17.867Z,20.37
2017-09-29T19:52:48.173Z,17.98
2017-09-29T19:55:17.433Z,15.98
2017-09-29T19:57:48.600Z,19.08
2017-09-29T20:00:17.854Z,16.95
2017-09-29T20:02:47.231Z,18.75
2017-09-29T20:05:16.660Z,22.67
2017-09-29T20:07:45.915Z,17.95
2017-09-29T20:10:15.179Z,22.83
2017-09-29T20:12:44.446Z,18.02
2017-09-29T20:15:14.495Z,21.70
2017-09-29T20:17:43.922Z,20.65
2017-09-29T20:20:13.175Z,21.20
2017-09-29T20:22:43.203Z,17.45
2017-09-29T20:25:14.227Z,20.88
2017-09-29T20:27:44.238Z,19.70
2017-09-29T20:30:14.288Z,19.10
2017-09-29T20:32:43.543Z,25.15
2017-09-29T20:35:12.824Z,18.35
2017-09-29T20:37:42.150Z,19.65
2017-09-29T20:40:11.403Z,21.40
2017-09-29T20:42:40.713Z,19.62
2017-09-29T20:45:10.115Z,19.95
2017-09-29T20:47:39.392Z,20.80
2017-09-29T20:50:08.653Z,18.80
2017-09-29T20:52:38.056Z,18.27
2017-09-29T20:55:07.312Z,21.52
2017-09-29T20:57:36.567Z,19.85
2017-09-29T21:00:06.596Z,19.73
2017-09-29T21:02:36.618Z,23.62
2017-09-29T21:05:06.680Z,20.02
2017-09-29T21:07:36.028Z,25.50
2017-09-29T21:10:06.081Z,20.27
2017-09-29T21:12:35.336Z,20.95
2017-09-29T21:15:04.675Z,20.45
2017-09-29T21:17:34.015Z,15.93
2017-09-29T21:20:03.322Z,20.23
2017-09-29T21:22:32.595Z,23.20
2017-09-29T21:25:01.881Z,24.75
2017-09-29T21:27:31.124Z,20.12
2017-09-29T21:30:00.384Z,19.90
2017-09-29T21:32:30.596Z,25.77
2017-09-29T21:34:59.850Z,20.60
2017-09-29T21:37:29.103Z,23.20
2017-09-29T21:39:58.378Z,23.80
2017-09-29T21:42:28.407Z,26.12
2017-09-29T21:44:58.461Z,22.58
2017-09-29T21:47:27.729Z,24.37
2017-09-29T21:49:57.792Z,26.45
2017-09-29T21:52:27.040Z,22.77
2017-09-29T21:54:56.306Z,21.25
2017-09-29T21:57:27.903Z,22.02
2017-09-29T21:59:57.353Z,21.62
2017-09-29T22:02:26.805Z,24.40
2017-09-29T22:04:57.017Z,18.85
2017-09-29T22:07:26.331Z,25.70
2017-09-29T22:09:55.596Z,18.20
2017-09-29T22:12:25.735Z,22.87
2017-09-29T22:14:55.751Z,22.27
2017-09-29T22:17:27.089Z,22.83
2017-09-29T22:19:56.399Z,24.87
2017-09-29T22:22:26.431Z,20.30
2017-09-29T22:24:56.508Z,26.20
2017-09-29T22:27:25.806Z,21.37
2017-09-29T22:29:55.076Z,24.10
2017-09-29T22:32:24.380Z,22.35
2017-09-29T22:34:53.632Z,20.02
2017-09-29T22:37:22.903Z,21.33
2017-09-29T22:39:52.210Z,17.23
2017-09-29T22:42:21.464Z,18.65
2017-09-29T22:44:51.507Z,19.98
2017-09-29T22:47:20.781Z,24.75
2017-09-29T22:49:50.099Z,16.70
2017-09-29T22:52:19.360Z,21.80
2017-09-29T22:54:48.625Z,20.45
2017-09-29T22:57:17.935Z,19.90
2017-09-29T22:59:47.199Z,20.65
2017-09-29T23:02:16.460Z,17.70
2017-09-29T23:04:46.671Z,18.83
2017-09-29T23:07:15.938Z,16.52
2017-09-29T23:09:45.188Z,17.37
2017-09-29T23:12:15.255Z,17.67
2017-09-29T23:14:44.538Z,20.55
2017-09-29T23:17:13.815Z,22.77
2017-09-29T23:19:43.874Z,19.23
2017-09-29T23:22:13.149Z,18.70
2017-09-29T23:24:42.431Z,19.60
2017-09-29T23:27:12.479Z,19.17
2017-09-29T23:29:41.834Z,21.17
2017-09-29T23:32:11.090Z,23.08
2017-09-29T23:34:40.359Z,18.62
2017-09-29T23:37:10.517Z,20.92
2017-09-29T23:39:39.792Z,22.02
2017-09-29T23:42:09.057Z,21.87
2017-09-29T23:44:38.337Z,18.75
2017-09-29T23:47:07.626Z,22.60
2017-09-29T23:49:36.875Z,20.75
2017-09-29T23:52:06.928Z,27.42
2017-09-29T23:54:36.198Z,19.90
2017-09-29T23:57:06.239Z,22.62
2017-09-29T23:59:35.691Z,23.45
